INFORMACIÓN METAR y TAF
METAR FOR EGGP
ADDS - METARS form results

(0855 UTC 25 August 2019)
Data provider http://aviationweather.gov/metar/data/
 
METAR text: EGGP 250850Z 10006KT 070V140 CAVOK 23/15 Q1017
Conditions at: EGGP (LIVERPOOL AIRPOR, GB) observed 0850 UTC 25 August 2019
Temperature: 23.0°C (73°F)
Dewpoint: 15.0°C (59°F) [RH = 61%]
Pressure (altimeter): 30.03 inches Hg (1017.0 mb)
Winds: from the E (100 degrees) at 7 MPH (6 knots; 3.1 m/s)
Visibility: 6 or more miles (10+ km)
Ceiling: ceiling and visibility are OK
Clouds: unknown
Weather: no significant weather observed at this time

METAR text: EGGP 250820Z 08006KT CAVOK 22/16 Q1017
Conditions at: EGGP (LIVERPOOL AIRPOR, GB) observed 0820 UTC 25 August 2019
Temperature: 22.0°C (72°F)
Dewpoint: 16.0°C (61°F) [RH = 69%]
Pressure (altimeter): 30.03 inches Hg (1017.0 mb)
Winds: from the E (80 degrees) at 7 MPH (6 knots; 3.1 m/s)
Visibility: 6 or more miles (10+ km)
Ceiling: ceiling and visibility are OK
Clouds: unknown
Weather: no significant weather observed at this time

Forecast for: EGGP (LIVERPOOL AIRPOR, GB)
Text: TAF EGGP 250458Z 2506/2606 06006KT 9999 FEW045
Forecast period: 0600 to 1000 UTC 25 August 2019
Forecast type: FROM: standard forecast or significant change
Winds: from the ENE (60 degrees) at 7 MPH (6 knots; 3.1 m/s)
Visibility: 6 or more miles 10+ km)
Ceiling: at least 12,000 feet AGL
Clouds: few clouds at 4500 feet AGL
Weather: no significant weather forecast for this period
Text: BECMG 2510/2513 31010KT
Forecast period: 1000 UTC 25 August 2019 to 0600 UTC 26 August 2019
Forecast type: BECOMING: Conditions expected to become as follows by 1300 UTC 25 August 2019
Winds: from the NW (310 degrees) at 12 MPH (10 knots; 5.1 m/s)
Visibility: 6 or more miles 10+ km)
Ceiling: at least 12,000 feet AGL
Clouds: few clouds at 4500 feet AGL
Weather: no significant weather forecast for this period
Text: TEMPO 2600/2606 BKN005
Forecast period: 0000 to 0600 UTC 26 August 2019
Forecast type: TEMPORARY: The following changes expected for less than half the time period
Visibility: missing
Ceiling: 500 feet AGL
Clouds: broken clouds at 500 feet AGL
Weather: no significant weather forecast for this period
Text: PROB30
Forecast period: 0000 to 0600 UTC 26 August 2019
Forecast type: TEMPORARY: The following changes expected for less than half the time period
Visibility: 0.50 miles (0.80 km)
Ceiling: 100 feet AGL
Clouds: broken clouds at 100 feet AGL
Weather: FG  (fog)

 MAPA DE AEROPUERTO

 INFORMACIÓN DE PISTA
Pista 09 Longitud 7500 ft Ancho 151 ft
Elevación 59 ft Umbral desplazado 200 ft Rumbo de pista 86
Pista 27 Longitud 7500 ft Ancho 151 ft
Elevación 77 ft Umbral desplazado 0 ft Rumbo de pista 266

 FRECUANCIAS DEL AEROPUERTO
Tipo APP Nombre APP Frecuencia 119.85 MHZ
Tipo ATIS Nombre ATIS Frecuencia 124.325 MHZ
Tipo GND Nombre GND Frecuencia 121.95 MHZ
Tipo TWR Nombre TWR Frecuencia 126.35 MHZ

 RADIO AYUDAS DEL AEROPUERTO



Powered by Virtual Airlines Manager [v2.6.2]